createdAt,value
2022-09-21T11:40:10.376Z,82.14
2022-09-21T11:43:07.151Z,84.91
2022-09-21T11:45:57.488Z,82.80
2022-09-21T11:49:03.151Z,77.69
2022-09-21T11:52:04.753Z,80.78
2022-09-21T11:55:23.263Z,77.05
2022-09-21T11:58:19.686Z,74.97
2022-09-21T12:01:31.921Z,76.67
2022-09-21T12:04:36.134Z,77.77
2022-09-21T12:07:38.955Z,75.78
2022-09-21T12:10:37.634Z,76.70
2022-09-21T12:13:20.765Z,75.98
2022-09-21T12:16:16.323Z,80.72
2022-09-21T12:18:53.207Z,80.02
2022-09-21T12:21:30.600Z,78.85
2022-09-21T12:24:05.604Z,76.57
2022-09-21T12:26:50.322Z,76.78
2022-09-21T12:29:36.981Z,78.34
2022-09-21T12:32:33.622Z,78.38
2022-09-21T12:35:06.423Z,74.42
2022-09-21T12:37:49.690Z,76.39
2022-09-21T12:41:05.382Z,75.70
2022-09-21T12:43:50.430Z,75.84
2022-09-21T12:46:30.921Z,78.60
2022-09-21T12:49:05.823Z,76.24
2022-09-21T12:51:43.352Z,76.83
2022-09-21T12:54:26.850Z,77.14
2022-09-21T12:57:38.119Z,75.29
2022-09-21T13:00:11.049Z,72.16
2022-09-21T13:02:49.748Z,73.53
2022-09-21T13:05:44.013Z,74.73
2022-09-21T13:08:21.498Z,71.15
2022-09-21T13:11:05.090Z,73.69
2022-09-21T13:14:00.545Z,72.90
2022-09-21T13:16:31.507Z,71.05
2022-09-21T13:19:05.665Z,72.32
2022-09-21T13:21:34.052Z,71.46
2022-09-21T13:24:04.456Z,73.94
2022-09-21T13:26:54.384Z,69.16
2022-09-21T13:30:22.752Z,68.66
2022-09-21T13:32:52.766Z,74.19
2022-09-21T13:35:54.864Z,75.02
2022-09-21T13:38:26.646Z,72.96
2022-09-21T13:41:18.606Z,72.87
2022-09-21T13:44:01.144Z,74.16
2022-09-21T13:46:35.311Z,75.86
2022-09-21T13:49:12.513Z,72.61
2022-09-21T13:52:05.659Z,73.70
2022-09-21T13:54:50.892Z,70.60
2022-09-21T13:57:42.064Z,73.81
2022-09-21T14:00:43.605Z,71.42
2022-09-21T14:03:37.306Z,72.86
2022-09-21T14:06:17.984Z,69.69
2022-09-21T14:09:09.208Z,69.63
2022-09-21T14:11:41.711Z,70.46
2022-09-21T14:14:44.703Z,67.30
2022-09-21T14:17:41.322Z,68.94
2022-09-21T14:20:39.147Z,68.23
2022-09-21T14:23:29.159Z,68.70
2022-09-21T14:26:01.884Z,65.73
2022-09-21T14:28:52.288Z,67.17
2022-09-21T14:31:33.601Z,69.36
2022-09-21T14:34:05.208Z,74.12
2022-09-21T14:36:50.782Z,70.99
2022-09-21T14:39:39.364Z,70.13
2022-09-21T14:42:19.504Z,70.92
2022-09-21T14:44:51.785Z,69.89
2022-09-21T14:47:44.930Z,66.26
2022-09-21T14:50:38.396Z,69.85
2022-09-21T14:53:52.478Z,68.32
2022-09-21T14:56:34.993Z,67.99
2022-09-21T14:59:48.177Z,71.59
2022-09-21T15:02:28.138Z,69.78
2022-09-21T15:05:24.420Z,70.39
2022-09-21T15:08:32.598Z,71.44
2022-09-21T15:11:25.159Z,69.80
2022-09-21T15:14:21.358Z,70.58
2022-09-21T15:16:51.784Z,71.43
2022-09-21T15:19:29.487Z,71.49
2022-09-21T15:22:21.041Z,73.73
2022-09-21T15:24:55.734Z,71.03
2022-09-21T15:27:29.140Z,73.83
2022-09-21T15:29:57.257Z,70.73
2022-09-21T15:32:41.685Z,68.64
2022-09-21T15:35:35.070Z,64.78
2022-09-21T15:38:02.892Z,62.17
2022-09-21T15:40:36.348Z,63.37
2022-09-21T15:43:20.110Z,63.65
2022-09-21T15:46:00.818Z,65.24
2022-09-21T15:48:39.817Z,65.67
2022-09-21T15:51:24.728Z,64.89
2022-09-21T15:54:32.315Z,64.01
2022-09-21T15:57:25.524Z,65.82
2022-09-21T15:59:54.068Z,64.58
2022-09-21T16:02:25.793Z,65.38
2022-09-21T16:04:53.972Z,68.47
2022-09-21T16:07:33.082Z,65.61
2022-09-21T16:10:03.696Z,65.90
2022-09-21T16:12:41.136Z,66.83
2022-09-21T16:15:32.082Z,67.93
2022-09-21T16:18:03.560Z,67.15
2022-09-21T16:20:39.042Z,68.29
2022-09-21T16:23:20.171Z,67.86
2022-09-21T16:26:00.758Z,69.13
2022-09-21T16:28:39.487Z,71.87
2022-09-21T16:31:36.419Z,72.45
2022-09-21T16:34:21.927Z,71.63
2022-09-21T16:39:34.371Z,74.19
2022-09-21T16:42:04.494Z,70.75
2022-09-21T16:44:40.232Z,71.65
2022-09-21T16:47:18.444Z,69.89
2022-09-21T16:49:46.407Z,71.32
2022-09-21T16:52:17.000Z,71.60
2022-09-21T16:54:45.462Z,71.64
2022-09-21T16:57:14.413Z,73.70
2022-09-21T16:59:43.029Z,74.25
2022-09-21T17:02:14.206Z,75.51
2022-09-21T17:04:42.655Z,77.12
2022-09-21T17:07:14.829Z,78.76
2022-09-21T17:09:46.560Z,76.82
2022-09-21T17:12:18.260Z,79.09
2022-09-21T17:14:47.396Z,80.85
2022-09-21T17:17:24.268Z,82.09
2022-09-21T17:19:54.151Z,82.90
2022-09-21T17:22:22.537Z,82.67
2022-09-21T17:24:52.460Z,83.84
2022-09-21T17:27:24.252Z,84.69
2022-09-21T17:29:54.355Z,85.17
2022-09-21T17:32:24.687Z,87.86
2022-09-21T17:35:19.263Z,88.01
2022-09-21T17:37:47.204Z,87.47
2022-09-21T17:40:15.784Z,88.77
2022-09-21T17:42:48.739Z,90.51
2022-09-21T17:45:59.376Z,91.55
2022-09-21T17:48:33.180Z,92.53
2022-09-21T17:51:02.683Z,93.84
2022-09-21T17:53:34.656Z,93.32
2022-09-21T17:56:40.732Z,94.48
2022-09-21T17:59:27.918Z,93.29
2022-09-21T18:01:59.774Z,93.87
2022-09-21T18:04:34.872Z,92.98
2022-09-21T18:07:03.265Z,92.62
2022-09-21T18:09:31.476Z,92.74
2022-09-21T18:12:48.254Z,94.08
2022-09-21T18:15:40.814Z,97.23
2022-09-21T18:18:43.101Z,99.53
2022-09-21T18:21:21.050Z,99.15
2022-09-21T18:24:20.790Z,100.00
2022-09-21T18:26:50.035Z,97.29
2022-09-21T18:29:41.642Z,100.00
2022-09-21T18:32:31.590Z,100.00
2022-09-21T18:35:26.065Z,100.00
2022-09-21T18:38:32.288Z,100.00
2022-09-21T18:41:21.468Z,100.00
2022-09-21T18:44:10.345Z,100.00
2022-09-21T18:47:02.889Z,100.00
2022-09-21T18:49:51.378Z,100.00
2022-09-21T18:52:46.612Z,100.00
2022-09-21T18:55:27.858Z,100.00
2022-09-21T18:57:57.460Z,100.00
2022-09-21T19:00:31.336Z,100.00
2022-09-21T19:03:29.163Z,100.00
2022-09-21T19:06:39.628Z,100.00
2022-09-21T19:09:44.450Z,100.00
2022-09-21T19:12:52.958Z,100.00
2022-09-21T19:16:00.345Z,100.00
2022-09-21T19:18:54.306Z,100.00
2022-09-21T19:21:38.589Z,100.00
2022-09-21T19:24:33.063Z,100.00
2022-09-21T19:27:51.011Z,100.00
2022-09-21T19:30:19.443Z,100.00
2022-09-21T19:33:00.789Z,100.00
2022-09-21T19:35:33.613Z,100.00
2022-09-21T19:38:04.112Z,100.00
2022-09-21T19:40:35.536Z,100.00
2022-09-21T19:43:40.404Z,100.00
2022-09-21T19:46:23.048Z,100.00
2022-09-21T19:48:59.736Z,100.00
2022-09-21T19:51:53.562Z,100.00
2022-09-21T19:54:43.094Z,100.00
2022-09-21T19:57:34.802Z,100.00
2022-09-21T20:00:05.688Z,100.00
2022-09-21T20:02:40.570Z,100.00
2022-09-21T20:05:16.347Z,100.00
2022-09-21T20:07:51.928Z,100.00
2022-09-21T20:10:51.594Z,100.00
2022-09-21T20:14:00.178Z,100.00
2022-09-21T20:16:48.018Z,100.00
2022-09-21T20:19:58.373Z,100.00
2022-09-21T20:22:40.639Z,100.00
2022-09-21T20:25:37.887Z,100.00
2022-09-21T20:28:07.171Z,100.00
2022-09-21T20:30:39.741Z,100.00
2022-09-21T20:33:15.305Z,100.00
2022-09-21T20:35:44.102Z,100.00
2022-09-21T20:38:12.267Z,100.00
2022-09-21T20:40:41.250Z,100.00
2022-09-21T20:43:10.160Z,100.00
2022-09-21T20:45:40.872Z,100.00
2022-09-21T20:48:15.750Z,100.00
2022-09-21T20:50:48.984Z,100.00
2022-09-21T20:53:19.723Z,100.00
2022-09-21T20:55:57.514Z,100.00
2022-09-21T20:58:25.638Z,100.00
2022-09-21T21:00:58.866Z,100.00
2022-09-21T21:03:27.629Z,100.00
2022-09-21T21:06:11.986Z,100.00
2022-09-21T21:08:40.296Z,100.00
2022-09-21T21:11:08.482Z,100.00
2022-09-21T21:13:37.078Z,100.00
2022-09-21T21:16:11.572Z,100.00
2022-09-21T21:18:41.814Z,100.00
2022-09-21T21:21:10.190Z,100.00
2022-09-21T21:23:57.421Z,100.00
2022-09-21T21:26:43.820Z,100.00
2022-09-21T21:29:15.267Z,100.00
2022-09-21T21:31:44.670Z,100.00
2022-09-21T21:34:13.103Z,100.00
2022-09-21T21:36:41.294Z,100.00
2022-09-21T21:39:10.757Z,100.00
2022-09-21T21:41:38.807Z,100.00
2022-09-21T21:44:06.802Z,100.00
2022-09-21T21:46:34.832Z,100.00
2022-09-21T21:49:02.851Z,100.00
2022-09-21T21:51:31.257Z,100.00
2022-09-21T21:53:59.343Z,100.00
2022-09-21T21:56:27.413Z,100.00
2022-09-21T21:58:56.504Z,100.00
2022-09-21T22:01:28.186Z,100.00
2022-09-21T22:04:01.719Z,100.00
2022-09-21T22:06:32.231Z,100.00
2022-09-21T22:09:01.668Z,100.00
2022-09-21T22:11:31.032Z,100.00
2022-09-21T22:14:01.567Z,100.00
2022-09-21T22:16:32.384Z,100.00
2022-09-21T22:19:07.900Z,100.00
2022-09-21T22:21:53.200Z,100.00
2022-09-21T22:24:24.072Z,100.00
2022-09-21T22:26:52.109Z,100.00
2022-09-21T22:29:20.364Z,100.00
2022-09-21T22:31:50.219Z,100.00
2022-09-21T22:34:20.382Z,100.00
2022-09-21T22:36:48.472Z,100.00
2022-09-21T22:39:16.329Z,100.00
2022-09-21T22:41:44.680Z,100.00
2022-09-21T22:44:12.555Z,100.00
2022-09-21T22:46:40.665Z,100.00
2022-09-21T22:49:08.897Z,100.00
2022-09-21T22:51:38.171Z,100.00
2022-09-21T22:54:06.557Z,100.00
2022-09-21T22:56:34.863Z,100.00
2022-09-21T22:59:05.072Z,100.00
2022-09-21T23:01:37.979Z,100.00
2022-09-21T23:04:12.471Z,100.00
2022-09-21T23:06:43.629Z,100.00
2022-09-21T23:09:19.646Z,100.00
2022-09-21T23:11:53.490Z,100.00
2022-09-21T23:14:23.122Z,100.00
2022-09-21T23:16:51.254Z,100.00
2022-09-21T23:19:19.121Z,100.00
2022-09-21T23:21:49.911Z,100.00
2022-09-21T23:24:19.176Z,100.00
2022-09-21T23:26:47.873Z,100.00
2022-09-21T23:29:16.649Z,100.00
2022-09-21T23:31:46.248Z,100.00
2022-09-21T23:34:15.768Z,100.00
2022-09-21T23:36:44.986Z,100.00
2022-09-21T23:39:14.835Z,100.00
2022-09-21T23:41:43.885Z,100.00
2022-09-21T23:44:12.095Z,100.00
2022-09-21T23:46:41.164Z,100.00
2022-09-21T23:49:09.787Z,100.00
2022-09-21T23:51:38.854Z,100.00
2022-09-21T23:54:07.672Z,100.00
2022-09-21T23:56:36.050Z,100.00
2022-09-21T23:59:04.321Z,100.00
